Time;durP1;ratioP1;P1;durP2;ratioP2;P2;SDS_P1;SDS_P2;PMS_P1;PMS_P2;Temp;Humidity;BMP_temperature;BMP_pressure;BME280_temperature;BME280_humidity;BME280_pressure;Samples;Min_cycle;Max_cycle;Signal;HPM_P1;HPM_P2
2022/12/29 00:00:12;;;;;;;11.93;2.87;;;9.40;70.80;;;12.30;46.43;97149.09;5044062;28;20049;-53
2022/12/29 00:02:41;;;;;;;8.10;4.13;;;9.40;70.80;;;12.32;46.18;97146.25;5042935;28;20045;-52
2022/12/29 00:05:09;;;;;;;3.97;2.47;;;9.40;70.80;;;12.34;46.18;97138.88;5042491;28;20046;-53
2022/12/29 00:07:37;;;;;;;5.70;2.07;;;9.50;70.80;;;12.37;46.20;97135.84;5042248;28;20389;-53
2022/12/29 00:10:05;;;;;;;3.53;2.17;;;9.50;70.50;;;12.36;46.22;97134.19;5043414;28;20355;-54
2022/12/29 00:15:38;;;;;;;3.53;2.20;;;9.50;70.60;;;12.41;46.45;97124.59;5043095;28;20060;-55
2022/12/29 00:18:07;;;;;;;4.53;1.80;;;9.50;70.70;;;12.44;46.40;97128.72;5035739;28;20041;-52
2022/12/29 00:44:04;;;;;;;1.67;1.30;;;9.60;70.50;;;12.65;46.15;97114.63;5037490;28;20041;-56
2022/12/29 00:45:43;;;;;;;2.20;1.53;;;9.70;70.70;;;12.70;46.13;97108.75;5042549;28;20038;-50
2022/12/29 00:48:11;;;;;;;3.20;1.60;;;9.70;70.70;;;12.72;46.09;97106.72;5042786;28;20037;-56
2022/12/29 00:50:39;;;;;;;5.57;1.77;;;9.80;70.50;;;12.74;46.25;97105.50;5057724;28;20041;-53
2022/12/29 00:53:07;;;;;;;3.63;1.50;;;9.80;70.20;;;12.75;45.92;97106.31;5041151;28;20041;-54
2022/12/29 00:55:38;;;;;;;4.63;1.67;;;9.80;70.50;;;12.77;46.12;97109.63;5042367;28;20050;-54
2022/12/29 00:58:06;;;;;;;4.93;1.70;;;9.80;70.40;;;12.79;46.07;97107.59;5033481;28;20041;-51
2022/12/29 01:00:33;;;;;;;3.83;1.50;;;9.90;70.60;;;12.78;46.14;97106.78;5042429;28;20036;-54
2022/12/29 01:03:01;;;;;;;3.07;1.60;;;9.90;70.50;;;12.83;45.85;97106.19;5040921;28;20045;-54
2022/12/29 01:05:29;;;;;;;2.97;1.20;;;9.90;70.50;;;12.87;45.81;97118.19;5039985;28;20045;-51
2022/12/29 01:07:57;;;;;;;2.53;1.47;;;9.90;70.30;;;12.90;45.70;97115.13;5042114;28;20049;-55
2022/12/29 01:10:25;;;;;;;3.33;1.83;;;10.00;70.10;;;12.93;45.99;97124.59;5040852;28;20049;-55
2022/12/29 01:12:53;;;;;;;1.90;1.30;;;10.00;70.20;;;12.93;45.90;97122.78;5040254;28;20057;-56
2022/12/29 01:15:21;;;;;;;2.07;1.40;;;9.90;70.20;;;12.97;45.80;97131.25;5042248;28;20034;-51
2022/12/29 01:17:48;;;;;;;4.33;1.30;;;10.00;70.30;;;12.99;45.73;97131.88;5040966;28;20051;-52
2022/12/29 01:20:16;;;;;;;2.70;1.40;;;10.00;70.30;;;13.02;45.94;97133.34;5042052;28;20043;-51
2022/12/29 01:22:44;;;;;;;2.50;1.60;;;10.00;70.40;;;13.03;45.77;97138.50;5041251;28;20057;-56
2022/12/29 01:25:12;;;;;;;1.93;1.20;;;10.00;70.20;;;13.05;45.81;97141.81;5040951;28;20051;-54
2022/12/29 01:27:40;;;;;;;3.23;1.60;;;10.10;70.50;;;13.09;45.92;97137.72;5040834;28;20055;-56
2022/12/29 01:30:09;;;;;;;5.30;1.90;;;10.10;70.70;;;13.13;45.63;97138.19;5040887;28;20048;-54
2022/12/29 01:32:37;;;;;;;1.47;1.27;;;10.10;70.70;;;13.16;45.87;97137.78;5041771;28;20100;-55
2022/12/29 01:35:06;;;;;;;2.47;1.43;;;10.10;70.70;;;13.17;45.62;97132.25;5041879;28;20034;-56
2022/12/29 01:37:35;;;;;;;2.17;1.23;;;10.10;70.60;;;13.19;45.55;97137.41;5040803;28;20049;-54
2022/12/29 01:40:03;;;;;;;2.40;1.50;;;10.10;70.50;;;13.19;45.56;97134.75;5040892;28;20037;-55
2022/12/29 01:42:32;;;;;;;1.80;1.43;;;10.10;70.30;;;13.17;45.51;97126.91;5040956;28;20370;-55
2022/12/29 01:45:16;;;;;;;3.33;1.80;;;10.10;70.20;;;13.19;45.65;97142.75;5041539;28;20050;-55
2022/12/29 01:47:55;;;;;;;2.63;1.17;;;10.20;70.20;;;13.23;45.68;97133.34;5039303;28;20055;-53
2022/12/29 01:50:30;;;;;;;2.20;1.60;;;10.20;70.20;;;13.19;45.54;97127.56;5041994;28;20042;-55
2022/12/29 01:53:05;;;;;;;7.93;1.50;;;10.10;70.00;;;13.17;45.65;97126.09;5024630;28;20064;-55
2022/12/29 01:55:42;;;;;;;2.17;1.40;;;10.20;70.00;;;13.15;45.22;97109.41;5041826;28;20033;-54
2022/12/29 01:58:12;;;;;;;3.10;1.57;;;10.20;69.90;;;13.09;45.66;97113.69;5017907;28;20045;-54
2022/12/29 02:00:40;;;;;;;3.93;1.60;;;10.10;70.10;;;13.10;45.55;97101.97;5024009;28;20356;-56
2022/12/29 02:03:09;;;;;;;1.93;1.40;;;10.20;69.90;;;13.11;45.53;97106.31;5040367;28;20235;-56
2022/12/29 02:06:08;;;;;;;2.40;1.70;;;10.20;69.80;;;13.11;45.68;97095.59;5041390;28;20041;-56
2022/12/29 02:08:38;;;;;;;5.17;1.50;;;10.20;69.20;;;13.06;45.71;97106.03;5036726;28;20048;-55
2022/12/29 02:11:07;;;;;;;1.67;1.00;;;10.10;69.50;;;13.00;45.80;97096.09;5040212;28;20246;-56
2022/12/29 02:13:35;;;;;;;2.67;1.60;;;10.10;69.80;;;13.03;45.85;97089.53;5041858;28;20052;-52
2022/12/29 02:16:26;;;;;;;2.37;1.27;;;10.20;69.80;;;13.05;45.57;97093.69;5040389;28;20251;-55
2022/12/29 02:19:31;;;;;;;2.30;1.37;;;10.20;69.10;;;12.99;45.71;97089.94;5043625;28;20056;-54
2022/12/29 02:22:14;;;;;;;1.90;1.13;;;10.20;69.10;;;13.00;45.84;97086.25;5044152;28;20049;-54
2022/12/29 02:24:56;;;;;;;6.80;2.10;;;10.20;69.20;;;13.00;46.30;97088.91;5043888;28;20356;-56
2022/12/29 02:28:07;;;;;;;2.17;1.83;;;10.20;69.50;;;13.07;46.00;97090.84;5039214;28;20328;-53
2022/12/29 02:30:57;;;;;;;3.80;1.40;;;10.30;69.80;;;13.17;45.72;97089.50;5039466;28;20045;-55
2022/12/29 02:34:04;;;;;;;3.03;1.57;;;10.30;70.00;;;13.20;45.85;97088.28;5037645;28;20045;-55
2022/12/29 02:37:05;;;;;;;2.37;1.40;;;10.30;69.80;;;13.20;45.83;97077.59;5039172;28;20048;-54
2022/12/29 02:39:47;;;;;;;1.50;1.13;;;10.30;69.70;;;13.22;45.60;97078.22;5025519;28;20041;-54
2022/12/29 02:42:30;;;;;;;2.90;1.40;;;10.30;69.60;;;13.19;45.59;97073.28;5036637;28;20037;-56
2022/12/29 02:45:34;;;;;;;1.38;1.27;;;10.30;69.60;;;13.18;45.90;97083.16;5043542;28;20053;-55
2022/12/29 02:48:28;;;;;;;4.20;1.23;;;10.30;69.70;;;13.23;45.91;97081.75;5041874;28;20053;-55
2022/12/29 02:51:09;;;;;;;3.22;1.40;;;10.20;69.90;;;13.28;45.71;97074.81;5043742;28;20055;-56
2022/12/29 02:56:24;;;;;;;3.43;1.20;;;10.30;70.20;;;13.28;45.54;97084.66;5023941;28;20049;-56
2022/12/29 02:58:52;;;;;;;5.47;1.43;;;10.30;70.00;;;13.25;45.68;97083.19;5043561;28;20252;-53
2022/12/29 03:02:16;;;;;;;1.87;1.47;;;10.30;69.90;;;13.28;45.68;97085.50;5043173;28;20041;-55
2022/12/29 03:04:40;;;;;;;2.77;1.37;;;10.30;69.90;;;13.32;45.48;97089.47;5026196;28;20045;-55
2022/12/29 03:07:23;;;;;;;1.57;1.10;;;10.30;69.60;;;13.31;45.58;97079.78;5043557;28;20049;-53
2022/12/29 03:10:34;;;;;;;2.33;1.40;;;10.40;69.60;;;13.27;45.44;97077.66;5043027;28;20052;-56
2022/12/29 03:16:10;;;;;;;3.78;1.80;;;10.40;70.40;;;13.37;45.52;97070.16;5043198;28;20128;-56
2022/12/29 03:19:11;;;;;;;1.73;1.13;;;10.40;70.00;;;13.38;45.46;97064.63;5027607;28;20366;-56
2022/12/29 03:24:43;;;;;;;2.57;1.20;;;10.30;70.00;;;13.33;45.32;97061.69;5026029;28;20275;-55
2022/12/29 03:27:19;;;;;;;1.95;1.25;;;10.30;69.90;;;13.32;45.45;97062.72;5027450;28;20045;-55
2022/12/29 03:29:54;;;;;;;5.00;1.40;;;10.30;70.10;;;13.34;45.53;97052.69;5042121;28;20045;-56
2022/12/29 03:32:31;;;;;;;4.03;1.07;;;10.30;70.20;;;13.35;45.46;97048.16;5020424;28;20041;-54
2022/12/29 03:35:00;;;;;;;2.13;1.20;;;10.30;70.00;;;13.35;45.50;97040.94;5043186;28;20229;-56
2022/12/29 03:37:37;;;;;;;1.33;1.20;;;10.40;69.50;;;13.41;45.35;97030.50;5026490;28;20056;-51
2022/12/29 03:40:06;;;;;;;3.70;1.20;;;10.50;69.60;;;13.45;45.22;97026.41;5027173;28;20244;-56
2022/12/29 03:42:36;;;;;;;2.13;1.27;;;10.50;69.20;;;13.40;45.41;97040.38;5042504;28;20045;-53
2022/12/29 03:45:06;;;;;;;16.07;1.97;;;10.60;68.60;;;13.50;45.40;97032.03;5042486;28;20270;-56
2022/12/29 03:47:34;;;;;;;2.27;0.80;;;10.70;68.50;;;13.53;45.41;97035.13;5026332;28;20049;-52
2022/12/29 03:50:02;;;;;;;5.50;1.60;;;10.80;67.30;;;13.58;44.92;97040.72;5026266;28;20075;-53
2022/12/29 03:52:33;;;;;;;3.90;1.20;;;10.80;67.80;;;13.63;45.11;97039.28;5041509;28;20048;-56
2022/12/29 03:55:01;;;;;;;2.27;1.07;;;10.90;68.00;;;13.67;45.14;97029.88;5041969;28;20052;-54
2022/12/29 03:57:29;;;;;;;1.43;1.03;;;10.90;68.10;;;13.70;44.93;97040.19;5043680;28;20037;-54
2022/12/29 04:00:03;;;;;;;1.63;0.77;;;10.90;67.70;;;13.69;44.97;97034.00;5026959;28;20045;-55
2022/12/29 04:02:41;;;;;;;2.57;1.47;;;10.80;67.90;;;13.72;44.77;97035.44;5045024;28;20244;-53
2022/12/29 04:05:14;;;;;;;2.15;1.13;;;10.80;67.90;;;13.75;44.93;97035.06;5042375;28;20072;-56
2022/12/29 04:07:42;;;;;;;1.87;1.27;;;10.90;68.10;;;13.79;44.88;97039.81;5043325;28;20037;-53
2022/12/29 04:10:10;;;;;;;2.40;1.30;;;10.90;68.20;;;13.81;44.82;97039.63;5042261;28;20061;-55
2022/12/29 04:12:38;;;;;;;3.37;1.30;;;10.90;68.20;;;13.82;44.80;97041.28;5042278;28;20041;-55
2022/12/29 04:15:08;;;;;;;2.83;1.30;;;10.80;68.10;;;13.81;44.91;97042.31;5042057;28;20072;-56
2022/12/29 04:17:36;;;;;;;3.80;1.40;;;10.80;68.40;;;13.79;44.86;97061.22;5025845;28;20057;-54
2022/12/29 04:23:06;;;;;;;2.27;1.27;;;10.80;68.60;;;13.83;45.05;97042.13;5041458;28;20237;-55
2022/12/29 04:25:35;;;;;;;2.60;1.30;;;10.80;68.30;;;13.82;44.83;97048.47;5025750;28;20229;-56
2022/12/29 04:28:03;;;;;;;1.73;1.30;;;10.80;68.70;;;13.79;44.94;97050.53;5041884;28;20049;-55
2022/12/29 04:31:04;;;;;;;2.63;0.97;;;10.70;68.70;;;13.79;44.86;97045.19;5040148;28;20053;-55
2022/12/29 04:33:35;;;;;;;1.90;1.10;;;10.70;68.80;;;13.77;44.94;97025.81;5041560;28;20041;-55
2022/12/29 04:36:04;;;;;;;1.57;1.10;;;10.70;68.80;;;13.68;44.87;97026.16;5041486;28;20071;-55
2022/12/29 04:38:32;;;;;;;2.30;1.30;;;10.70;68.80;;;13.65;45.24;97027.41;5042058;28;20041;-54
2022/12/29 04:41:04;;;;;;;1.60;1.10;;;10.70;68.90;;;13.63;45.40;97023.25;5041575;28;20060;-55
2022/12/29 04:43:33;;;;;;;1.03;0.93;;;10.70;68.90;;;13.63;45.24;97013.41;5025350;28;20049;-55
2022/12/29 04:46:16;;;;;;;1.63;1.17;;;10.70;69.00;;;13.66;45.35;97022.88;5042859;28;20247;-56
2022/12/29 04:49:00;;;;;;;1.43;0.93;;;10.70;69.00;;;13.66;45.16;97026.34;5039414;28;20053;-54
2022/12/29 04:51:46;;;;;;;1.90;1.20;;;10.70;69.10;;;13.67;45.19;97011.97;5041753;28;20049;-52
2022/12/29 04:54:16;;;;;;;4.97;1.10;;;10.70;69.20;;;13.70;45.37;97016.09;5041055;28;20053;-56
2022/12/29 04:56:49;;;;;;;1.88;1.30;;;10.80;69.20;;;13.70;45.43;97024.94;5041319;28;20052;-55
2022/12/29 04:59:17;;;;;;;2.30;1.30;;;10.70;69.30;;;13.65;45.41;97014.03;5041413;28;20049;-56
2022/12/29 05:01:48;;;;;;;2.20;1.30;;;10.70;69.40;;;13.64;45.26;97007.00;5040952;28;20049;-56
2022/12/29 05:04:17;;;;;;;2.40;1.30;;;10.70;69.50;;;13.58;45.31;97005.94;5042078;28;20034;-54
2022/12/29 05:06:44;;;;;;;2.07;1.20;;;10.70;69.50;;;13.52;45.47;97014.75;5041043;28;20050;-56
2022/12/29 05:09:12;;;;;;;2.50;1.10;;;10.60;69.50;;;13.50;45.72;97015.97;5042383;28;20049;-54
2022/12/29 05:11:41;;;;;;;3.43;1.27;;;10.60;69.60;;;13.44;45.99;97006.06;5041421;28;20383;-54
2022/12/29 05:14:09;;;;;;;1.63;1.10;;;10.60;69.90;;;13.45;45.99;97002.34;5025050;28;20071;-55
2022/12/29 05:16:38;;;;;;;1.20;1.00;;;10.60;70.10;;;13.44;45.99;97006.88;5041030;28;20369;-55
2022/12/29 05:19:06;;;;;;;4.83;1.40;;;10.60;70.30;;;13.42;45.91;97006.25;5040659;28;20076;-53
2022/12/29 05:21:35;;;;;;;1.63;1.10;;;10.60;70.30;;;13.38;46.05;97024.53;5040910;28;20051;-54
2022/12/29 05:24:04;;;;;;;1.83;1.40;;;10.50;70.70;;;13.39;46.15;97025.34;5040860;28;20056;-50
2022/12/29 05:26:32;;;;;;;1.53;1.17;;;10.50;70.80;;;13.42;46.17;97029.50;5040704;28;20051;-55
2022/12/29 05:29:07;;;;;;;2.73;1.77;;;10.50;70.80;;;13.42;46.14;97027.66;5040827;28;20057;-55
2022/12/29 05:31:35;;;;;;;1.90;0.97;;;10.60;70.80;;;13.41;46.28;97015.28;5040434;28;20051;-56
2022/12/29 05:34:04;;;;;;;1.90;1.30;;;10.60;71.00;;;13.47;46.29;97022.53;5040770;28;20061;-56
2022/12/29 05:36:32;;;;;;;2.95;1.20;;;10.60;71.00;;;13.50;46.32;97024.81;5024177;28;20272;-56
2022/12/29 05:39:09;;;;;;;1.50;1.00;;;10.70;71.00;;;13.55;46.41;97032.25;5040842;28;20053;-53
2022/12/29 05:41:38;;;;;;;2.00;1.20;;;10.70;71.00;;;13.59;46.39;97029.00;5040674;28;20041;-55
2022/12/29 05:44:25;;;;;;;2.50;1.40;;;10.70;71.10;;;13.66;46.42;97020.19;5040900;28;20370;-56
2022/12/29 05:47:12;;;;;;;1.83;1.20;;;10.80;71.00;;;13.71;46.22;97018.59;5026744;28;20060;-56
2022/12/29 05:49:55;;;;;;;2.17;1.52;;;10.80;70.90;;;13.67;46.34;97017.31;5040780;28;20243;-56
2022/12/29 05:52:52;;;;;;;2.05;1.25;;;10.70;71.30;;;13.61;46.16;97010.09;5047104;28;20057;-55
2022/12/29 05:55:20;;;;;;;1.70;1.40;;;10.70;71.40;;;13.54;46.49;97011.88;5044630;28;20051;-56
2022/12/29 05:57:51;;;;;;;3.53;1.70;;;10.70;71.50;;;13.47;46.75;96998.47;5028713;28;20048;-55
2022/12/29 06:00:19;;;;;;;2.30;1.40;;;10.70;71.60;;;13.48;46.84;96991.28;5044658;28;20055;-54
2022/12/29 06:02:47;;;;;;;3.93;1.60;;;10.70;71.60;;;13.46;46.78;96986.13;5044213;28;20049;-55
2022/12/29 06:05:17;;;;;;;3.57;1.60;;;10.70;71.60;;;13.45;46.69;96987.13;5045888;28;20041;-56
2022/12/29 06:07:45;;;;;;;2.47;1.37;;;10.70;71.80;;;13.35;47.31;96998.16;5044491;28;20377;-55
2022/12/29 06:10:15;;;;;;;2.43;1.57;;;10.70;71.90;;;13.37;47.04;97004.16;5044072;28;20261;-55
2022/12/29 06:13:06;;;;;;;3.50;1.50;;;10.70;71.80;;;13.39;47.14;97011.97;5044685;28;20389;-54
2022/12/29 06:15:37;;;;;;;3.07;1.40;;;10.60;71.70;;;13.43;46.89;96999.88;5044476;28;20370;-54
2022/12/29 06:18:08;;;;;;;2.23;1.47;;;10.60;71.80;;;13.44;46.87;97004.22;5044589;28;20443;-56
2022/12/29 06:20:39;;;;;;;3.03;2.20;;;10.60;71.80;;;13.43;47.00;97007.06;5045053;28;20232;-53
2022/12/29 06:23:08;;;;;;;2.30;1.57;;;10.60;71.90;;;13.44;46.82;97014.91;5043759;28;20053;-54
2022/12/29 06:25:36;;;;;;;2.73;1.70;;;10.60;72.00;;;13.41;46.93;97015.28;5044049;28;20052;-56
2022/12/29 06:28:05;;;;;;;3.30;2.80;;;10.60;72.00;;;13.43;47.10;97013.25;5044496;28;20364;-54
2022/12/29 06:30:33;;;;;;;2.87;1.70;;;10.60;72.00;;;13.38;46.95;97005.00;5044131;28;20382;-53
2022/12/29 06:33:02;;;;;;;2.13;1.70;;;10.60;72.10;;;13.38;47.21;96997.78;5043551;28;20058;-55
2022/12/29 06:35:30;;;;;;;4.37;1.70;;;10.60;72.20;;;13.42;47.15;97002.75;5027513;28;20045;-55
2022/12/29 06:37:57;;;;;;;1.83;1.47;;;10.60;72.20;;;13.41;47.05;97009.13;5027277;28;20247;-52
2022/12/29 06:40:25;;;;;;;1.80;1.53;;;10.60;72.40;;;13.39;47.21;97014.66;5036646;28;20045;-54
2022/12/29 06:43:19;;;;;;;2.43;1.57;;;10.60;72.20;;;13.44;46.79;97009.56;5045445;28;20053;-57
2022/12/29 06:46:15;;;;;;;1.93;1.57;;;10.60;72.10;;;13.45;47.01;97007.69;5043171;28;20061;-56
2022/12/29 06:48:43;;;;;;;3.90;1.70;;;10.60;71.90;;;13.44;47.02;97008.75;5045126;28;20226;-55
2022/12/29 06:51:11;;;;;;;2.30;1.60;;;10.60;71.80;;;13.42;46.95;97006.25;5044676;28;20045;-55
2022/12/29 06:53:39;;;;;;;2.53;1.50;;;10.70;71.90;;;13.44;46.88;97009.56;5042764;28;20053;-53
2022/12/29 06:56:07;;;;;;;2.57;1.57;;;10.70;71.80;;;13.48;46.88;97012.69;5042981;28;20060;-55
2022/12/29 06:58:35;;;;;;;3.07;1.50;;;10.70;71.60;;;13.50;46.86;97013.31;5044605;28;20206;-56
2022/12/29 07:01:03;;;;;;;3.70;1.57;;;10.70;71.30;;;13.45;46.78;97000.50;5043542;28;20046;-56
2022/12/29 07:03:31;;;;;;;3.00;2.00;;;10.70;71.30;;;13.44;46.86;96988.16;5044356;28;20045;-57
2022/12/29 07:05:59;;;;;;;3.37;1.50;;;10.80;71.40;;;13.46;46.91;96986.13;5044147;28;20056;-57
2022/12/29 07:08:27;;;;;;;2.43;1.70;;;10.80;71.10;;;13.50;46.65;96986.56;5036672;28;20051;-57
2022/12/29 07:10:54;;;;;;;3.13;1.60;;;10.70;71.00;;;13.51;46.86;96991.72;5044603;28;20041;-56
2022/12/29 07:13:23;;;;;;;3.53;1.40;;;10.70;70.90;;;13.54;46.55;96990.50;5044401;28;20103;-55
2022/12/29 07:15:51;;;;;;;2.77;2.30;;;10.80;70.70;;;13.44;46.75;96990.84;5044527;28;20041;-58
2022/12/29 07:18:19;;;;;;;3.37;1.80;;;10.80;70.40;;;13.57;46.56;97000.78;5044320;28;20045;-58
2022/12/29 07:20:47;;;;;;;2.43;1.63;;;10.80;70.40;;;13.63;46.29;96997.34;5043274;28;20044;-56
2022/12/29 07:23:15;;;;;;;2.57;1.73;;;10.90;70.40;;;13.71;46.28;97009.75;5042916;28;20060;-56
2022/12/29 07:25:43;;;;;;;2.47;1.63;;;11.00;69.90;;;13.75;46.30;96992.28;5044123;28;20041;-57
2022/12/29 07:28:11;;;;;;;2.50;1.83;;;11.00;69.10;;;13.65;46.37;96997.97;5044063;28;20049;-55
2022/12/29 07:30:39;;;;;;;3.70;1.73;;;11.10;69.20;;;13.79;46.13;97002.38;5043203;28;20041;-53
2022/12/29 07:33:06;;;;;;;3.40;1.30;;;11.10;69.50;;;13.78;45.98;96997.22;5042685;28;20047;-55
2022/12/29 07:35:35;;;;;;;3.00;1.73;;;11.10;69.00;;;13.88;45.90;96994.19;5043104;28;20063;-55
2022/12/29 07:38:02;;;;;;;4.07;1.60;;;11.10;69.00;;;13.87;45.80;97004.06;5044042;28;20038;-57
2022/12/29 07:40:30;;;;;;;2.50;1.47;;;11.20;68.70;;;13.88;45.65;97002.19;5044067;28;20052;-54
2022/12/29 07:42:58;;;;;;;2.73;1.30;;;11.20;68.20;;;13.95;45.69;97011.91;5043610;28;20049;-54
2022/12/29 07:45:35;;;;;;;3.95;1.73;;;11.20;68.50;;;14.02;45.42;97005.78;5035720;28;20045;-52
2022/12/29 07:48:09;;;;;;;2.03;1.30;;;11.20;68.30;;;14.06;45.24;97004.38;5040853;28;20063;-54
2022/12/29 07:50:37;;;;;;;3.90;1.60;;;11.20;68.00;;;14.03;45.26;97013.59;5041780;28;20051;-55
2022/12/29 07:53:05;;;;;;;2.60;1.48;;;11.20;67.40;;;14.04;45.03;97011.78;5042292;28;20311;-55
2022/12/29 07:55:33;;;;;;;4.77;2.03;;;11.30;67.70;;;14.05;45.08;97016.91;5042662;28;20045;-55
2022/12/29 07:58:00;;;;;;;3.83;1.40;;;11.30;67.30;;;14.06;44.90;97018.56;5043732;28;20050;-55
2022/12/29 08:00:28;;;;;;;3.90;1.40;;;11.30;67.40;;;14.06;44.99;97017.75;5043605;28;20041;-55
2022/12/29 08:02:58;;;;;;;1.45;1.23;;;11.30;67.30;;;14.11;44.86;97023.31;5043273;28;20045;-54
2022/12/29 08:05:26;;;;;;;2.45;1.60;;;11.40;66.80;;;14.15;44.95;97025.41;5042399;28;20042;-59
2022/12/29 08:07:54;;;;;;;2.17;1.60;;;11.40;66.80;;;14.19;44.66;97036.56;5042509;28;20060;-57
2022/12/29 08:10:22;;;;;;;2.65;1.50;;;11.50;66.70;;;14.25;44.48;97030.41;5043136;28;20287;-56
2022/12/29 08:12:50;;;;;;;2.90;1.95;;;11.50;66.60;;;14.29;44.45;97037.00;5041948;28;20045;-56
2022/12/29 08:15:18;;;;;;;3.35;1.60;;;11.50;65.80;;;14.33;44.41;97040.13;5042761;28;20056;-57
2022/12/29 08:17:46;;;;;;;2.10;1.30;;;11.50;66.20;;;14.34;44.41;97037.22;5042389;28;20032;-56
2022/12/29 08:20:13;;;;;;;3.63;1.23;;;11.50;65.40;;;14.35;44.25;97032.72;5041933;28;20045;-57
2022/12/29 08:22:41;;;;;;;3.47;1.52;;;11.50;65.10;;;14.34;44.07;97036.41;5042577;28;20041;-57
2022/12/29 08:25:09;;;;;;;3.47;1.75;;;11.50;65.80;;;14.32;44.08;97041.94;5043044;28;20056;-55
2022/12/29 08:27:37;;;;;;;3.13;1.48;;;11.60;65.70;;;14.38;44.09;97032.28;5043014;28;20045;-57
2022/12/29 08:30:06;;;;;;;2.45;1.13;;;11.60;65.60;;;14.43;44.21;97026.34;5042942;28;20371;-55
2022/12/29 08:32:33;;;;;;;3.22;1.60;;;11.60;65.10;;;14.41;43.69;97023.06;5041965;28;20051;-56
2022/12/29 08:35:01;;;;;;;4.30;1.75;;;11.60;65.00;;;14.44;43.97;97028.81;5042874;28;20233;-54
2022/12/29 08:37:29;;;;;;;3.50;1.27;;;11.60;65.40;;;14.42;43.65;97022.00;5034497;28;20049;-56
2022/12/29 08:39:59;;;;;;;2.97;1.52;;;11.60;65.10;;;14.47;43.78;97030.28;5042724;28;20275;-57
2022/12/29 08:42:30;;;;;;;4.43;1.42;;;11.70;65.00;;;14.48;43.70;97032.75;5042731;28;20037;-54
2022/12/29 08:44:59;;;;;;;2.15;1.33;;;11.70;65.00;;;14.52;43.69;97041.19;5042516;28;20347;-55
2022/12/29 08:47:27;;;;;;;2.45;1.40;;;11.80;65.00;;;14.51;43.52;97042.22;5040843;28;20044;-53
2022/12/29 08:49:55;;;;;;;2.27;1.37;;;11.70;64.50;;;14.55;43.55;97046.97;5041279;28;20047;-56
2022/12/29 08:52:23;;;;;;;3.00;2.00;;;11.80;64.00;;;14.59;43.55;97049.31;5033325;28;20048;-55
2022/12/29 08:54:54;;;;;;;1.77;1.20;;;11.80;63.70;;;14.59;43.51;97051.97;5037730;28;20051;-56
2022/12/29 08:57:22;;;;;;;4.53;1.45;;;11.80;64.20;;;14.61;43.36;97053.41;5037415;28;20049;-56
2022/12/29 09:00:04;;;;;;;3.38;1.20;;;11.80;64.10;;;14.66;43.20;97056.34;5037360;28;20064;-56
2022/12/29 09:02:32;;;;;;;1.73;1.10;;;11.90;63.90;;;14.79;43.29;97062.75;5018633;28;20060;-52
2022/12/29 09:05:01;;;;;;;3.17;1.70;;;12.00;63.50;;;14.88;43.11;97067.72;5038859;28;20319;-56
2022/12/29 09:07:29;;;;;;;2.90;1.52;;;12.10;62.10;;;14.72;43.15;97074.28;5038066;28;20127;-55
2022/12/29 09:09:57;;;;;;;4.03;2.08;;;12.20;62.90;;;14.93;42.94;97072.50;5036174;28;20344;-53
2022/12/29 09:12:26;;;;;;;2.10;1.60;;;12.20;63.10;;;14.95;42.90;97078.47;5036156;28;20045;-55
2022/12/29 09:15:03;;;;;;;5.25;1.33;;;12.30;62.40;;;15.08;42.74;97080.34;5037587;28;20049;-56
2022/12/29 09:17:44;;;;;;;3.75;1.90;;;12.40;61.70;;;15.11;42.72;97077.25;5037397;28;20217;-56
2022/12/29 09:20:18;;;;;;;1.73;1.30;;;12.40;62.60;;;15.09;42.92;97079.31;5036303;28;20243;-56
2022/12/29 09:22:47;;;;;;;1.73;1.17;;;12.50;61.60;;;15.10;42.42;97078.28;5037963;28;20049;-57
2022/12/29 09:25:16;;;;;;;1.88;1.20;;;12.50;61.60;;;15.20;42.36;97083.22;5036575;28;20046;-54
2022/12/29 09:27:44;;;;;;;1.52;1.30;;;12.50;60.70;;;15.27;42.32;97090.25;5037141;28;20067;-56
2022/12/29 09:30:14;;;;;;;3.33;2.00;;;12.50;61.50;;;15.20;42.28;97094.81;5038356;28;20059;-55
2022/12/29 09:32:42;;;;;;;2.70;1.48;;;12.50;61.30;;;15.28;42.32;97081.19;5036560;28;20049;-56
2022/12/29 09:35:14;;;;;;;2.03;1.20;;;12.60;61.80;;;15.25;42.53;97091.50;5037652;28;20224;-56
2022/12/29 09:37:42;;;;;;;3.08;1.45;;;12.70;61.70;;;15.32;42.43;97082.44;5038049;28;20041;-56
2022/12/29 09:40:29;;;;;;;2.05;1.45;;;12.70;61.40;;;15.41;42.16;97091.13;5037689;28;20041;-56
2022/12/29 09:43:24;;;;;;;1.83;1.35;;;12.80;60.80;;;15.36;42.42;97090.91;5037741;28;20054;-54
2022/12/29 09:46:12;;;;;;;2.40;1.65;;;12.80;61.30;;;15.31;42.28;97085.31;5037216;28;20049;-55
2022/12/29 09:48:47;;;;;;;2.33;1.70;;;12.80;61.00;;;15.48;42.49;97097.28;5037377;28;20070;-56
2022/12/29 09:51:21;;;;;;;3.78;1.75;;;12.90;62.10;;;15.40;42.54;97081.41;5036680;28;20050;-57
2022/12/29 09:54:44;;;;;;;2.00;1.10;;;12.90;61.70;;;15.09;42.80;97092.72;5035236;28;20056;-56
2022/12/29 09:57:57;;;;;;;3.67;1.40;;;12.80;61.40;;;15.32;42.91;97105.75;5036973;28;20063;-54
2022/12/29 10:01:02;;;;;;;1.60;1.23;;;12.90;62.00;;;15.33;43.13;97093.97;5036531;28;20056;-56
2022/12/29 10:03:48;;;;;;;2.58;1.40;;;12.90;62.70;;;15.47;43.09;97100.19;5036226;28;20072;-55
2022/12/29 10:06:54;;;;;;;2.45;1.40;;;12.90;62.80;;;15.15;43.75;97100.75;5036119;28;20057;-52
2022/12/29 10:10:29;;;;;;;2.28;1.25;;;12.90;63.10;;;15.24;43.78;97098.72;5036311;28;20049;-55
2022/12/29 10:13:18;;;;;;;1.98;1.40;;;12.90;63.90;;;15.45;43.85;97105.78;5036894;28;20053;-53
2022/12/29 10:16:28;;;;;;;1.20;1.08;;;12.90;65.00;;;15.13;44.84;97100.16;5036301;28;20049;-54
2022/12/29 10:19:28;;;;;;;4.45;1.30;;;12.70;66.40;;;14.89;45.63;97106.09;5035542;28;20058;-56
2022/12/29 10:22:35;;;;;;;2.28;1.40;;;12.50;67.70;;;14.87;45.88;97113.47;5033460;28;20056;-55
2022/12/29 10:25:20;;;;;;;1.73;1.42;;;12.40;68.60;;;15.10;45.61;97105.09;5036126;28;20348;-54
2022/12/29 10:27:52;;;;;;;2.72;1.30;;;12.50;68.10;;;15.17;45.41;97113.97;5034929;28;20057;-54
2022/12/29 10:30:20;;;;;;;2.15;1.38;;;12.60;67.80;;;15.28;45.31;97117.94;5034279;28;20108;-56
2022/12/29 10:33:00;;;;;;;2.53;1.13;;;12.70;68.00;;;15.32;45.15;97108.44;5037012;28;20041;-53
2022/12/29 10:35:37;;;;;;;1.83;1.50;;;12.80;67.30;;;15.43;45.35;97107.00;5035524;28;20053;-56
2022/12/29 10:38:40;;;;;;;3.75;1.98;;;12.80;67.20;;;15.33;44.67;97110.06;5035741;28;20065;-56
2022/12/29 10:41:25;;;;;;;3.20;1.53;;;12.80;65.50;;;15.26;44.94;97122.66;5037554;28;20247;-56
2022/12/29 10:43:56;;;;;;;1.95;1.05;;;12.80;66.50;;;15.27;45.75;97114.41;5038022;28;20046;-56
2022/12/29 10:46:36;;;;;;;0.98;0.70;;;12.80;68.00;;;14.69;46.94;97109.50;5022978;28;20080;-54
2022/12/29 10:49:15;;;;;;;1.30;1.20;;;12.70;68.90;;;15.20;46.22;97105.53;5035130;28;20050;-54
2022/12/29 10:51:51;;;;;;;2.00;1.10;;;12.70;68.80;;;15.12;46.21;97106.56;5018999;28;20257;-54
2022/12/29 10:54:41;;;;;;;2.35;1.40;;;12.70;68.80;;;15.29;46.05;97096.25;5037438;28;20230;-54
2022/12/29 10:57:29;;;;;;;3.17;1.58;;;12.70;69.20;;;15.40;45.77;97100.19;5043620;28;20443;-57
2022/12/29 10:59:58;;;;;;;1.95;1.17;;;12.70;68.90;;;15.31;45.77;97104.09;5043622;28;20043;-56
2022/12/29 11:02:41;;;;;;;1.58;1.30;;;12.80;68.50;;;15.46;45.66;97099.34;5043733;28;20049;-56
2022/12/29 11:06:08;;;;;;;2.50;1.02;;;12.80;68.80;;;15.50;45.17;97094.41;5032560;28;20049;-56
2022/12/29 11:08:50;;;;;;;1.85;0.95;;;12.80;67.90;;;15.47;44.99;97098.34;5043100;28;20199;-55
2022/12/29 11:11:26;;;;;;;2.72;1.10;;;12.90;67.10;;;15.13;45.09;97105.50;5041910;28;20057;-57
2022/12/29 11:14:10;;;;;;;3.65;1.10;;;12.90;66.20;;;15.52;44.95;97098.53;5026966;28;20049;-56
2022/12/29 11:16:38;;;;;;;2.97;2.08;;;13.00;66.20;;;15.73;44.24;97110.94;5044248;28;20049;-53
2022/12/29 11:19:23;;;;;;;5.40;1.20;;;13.10;65.70;;;15.82;44.31;97108.91;5044548;28;20370;-56
2022/12/29 11:21:52;;;;;;;2.13;1.23;;;13.20;65.40;;;15.54;44.27;97106.38;5036839;28;20051;-59
2022/12/29 11:24:27;;;;;;;1.60;1.50;;;13.30;64.20;;;15.65;44.43;97118.38;5043097;28;20050;-58
2022/12/29 11:27:14;;;;;;;2.40;1.33;;;13.30;64.30;;;15.20;44.45;97110.91;5044407;28;20045;-57
2022/12/29 11:29:44;;;;;;;3.47;1.38;;;13.30;63.50;;;15.70;44.19;97102.47;5035795;28;20053;-56